メインページ
METAR-TAF:

METAR-TAF

空港 :

クアトロ・デ・フェベレイロ空港

ルアンダ, アンゴラ

緯度: 08-51S, 経度: 013-14E, 海抜: 74m

現時点の気象観測

当レポートは56分前の22:00(UTC)に作成
の風 6kt
気温 23°C
湿度 83%
気圧 1015 hPa
視程: 7000m
高度2000ftの雲は散在している

METAR: FNLU 182200Z 19006KT 7000 SCT020 23/20 Q1015

時間: 23:56 (22:56 UTC)

予報

当レポートは6時間11分前の16:45(UTC)に作成
予報は18日の 18時(UTC)から 19日の 24時(UTC)まで有効
南西の風 8kt
視程10km以上
高度2000ftの雲はほとんどない
18日の 20時(UTC)から 18日の 22時(UTC)まで徐々に
南東の風 6kt
視程: 8000m
高度1800ftの雲は散在している
19日の 03時(UTC)から 19日の 07時(UTC)まで一時的に
変向風 3kt
視程: 2000m
高度1400ftの雲は散在している
高度2000ftの曇り
19日の 10時(UTC)から 19日の 12時(UTC)まで徐々に
西/南西の風 8kt
視程: 7000m
高度1800ftの雲はほとんどない
高度2300ftの千切れ雲あり

TAF: FNLU 181645Z 1818/1924 23008KT 9999 FEW020 BECMG 1820/1822 14006KT 8000 SCT018 TEMPO 1903/1907 VRB03KT 2000 BR SCT014 OVC020 BECMG 1910/1912 25008KT 7000 FEW018 BKN023

4,000以上の空港の気象観測と天気予報(METAR報とTAF報)

利用可能な観測所は地図上に黄色い丸と赤い丸で示す。

丸の上にカーソルを重ねると観測所名を参照できる。

次にクリックすると気象観測と天気予報を参照できる。

マップの切り替え:黒色「×」印の緑ボタンをクリックして拡大、「-」印の緑ボタンをクリックして縮小、緑色の三角印をクリックして隣りの地図に切り替え


METAR-TAF: